Bucks Harbor, Maine
Current Conditions -  °F | °C
As of 9:15 AM on Monday 26 Jan 2015 (Local Time) from KBHB Reporting Station
Clear Clear  
Wind Chill: -8°   Ceiling: Unl
Heat Index:   Visibility: 10mi
Dew Point: -2°   Wind: 10mph
Humidity: 67%   Direction: 10°N
Pressure: 30.22"   Gusts: NA
Location:  44.6541°N, 67.405°W
Report Text: KBHB 261415Z 01009KT 10SM CLR M14/M19 A3022 RMK AO1
Loading
Personal Weather Stations






























Interactive Weather Map New forecast layout! Learn more

10-Day Weather Forecast

Advertisements
Track Severe Weather on mobile